createdAt,value
2022-11-17T00:00:39.794Z,100270.78
2022-11-17T00:03:06.249Z,100251.13
2022-11-17T00:05:34.746Z,100214.91
2022-11-17T00:08:01.305Z,100274.47
2022-11-17T00:10:27.728Z,100259.06
2022-11-17T00:13:12.909Z,100278.69
2022-11-17T00:15:42.949Z,100208.00
2022-11-17T00:18:28.141Z,100272.81
2022-11-17T00:21:13.085Z,100244.88
2022-11-17T00:23:48.600Z,100282.09
2022-11-17T00:26:34.966Z,100204.78
2022-11-17T00:29:05.738Z,100175.72
2022-11-17T00:31:52.646Z,100257.28
2022-11-17T00:34:21.847Z,100139.16
2022-11-17T00:36:53.755Z,100252.28
2022-11-17T00:39:22.288Z,100250.06
2022-11-17T00:41:48.796Z,100123.72
2022-11-17T00:44:16.092Z,100156.72
2022-11-17T00:46:43.251Z,100243.38
2022-11-17T00:49:11.050Z,100172.00
2022-11-17T00:51:38.088Z,100213.69
2022-11-17T00:54:05.826Z,100165.66
2022-11-17T00:56:32.453Z,100182.69
2022-11-17T00:58:59.341Z,100167.63
2022-11-17T01:01:25.901Z,100185.53
2022-11-17T01:04:03.180Z,100201.00
2022-11-17T01:06:41.479Z,100204.03
2022-11-17T01:09:20.711Z,100207.84
2022-11-17T01:11:49.162Z,100154.66
2022-11-17T01:14:18.984Z,100162.81
2022-11-17T01:16:45.740Z,100215.56
2022-11-17T01:19:14.331Z,100218.44
2022-11-17T01:21:40.914Z,100214.84
2022-11-17T01:24:07.771Z,100128.84
2022-11-17T01:26:36.389Z,100158.31
2022-11-17T01:29:05.325Z,100151.72
2022-11-17T01:31:34.559Z,100190.38
2022-11-17T01:34:01.243Z,100187.41
2022-11-17T01:36:31.530Z,100180.44
2022-11-17T01:38:57.979Z,100176.94
2022-11-17T01:41:27.697Z,100174.84
2022-11-17T01:43:56.566Z,100156.47
2022-11-17T01:46:38.249Z,100140.78
2022-11-17T01:49:17.608Z,100165.63
2022-11-17T01:51:48.852Z,100148.56
2022-11-17T01:54:20.815Z,100061.19
2022-11-17T01:56:51.985Z,100044.13
2022-11-17T01:59:30.269Z,100129.13
2022-11-17T02:01:57.655Z,100075.16
2022-11-17T02:04:30.913Z,100119.53
2022-11-17T02:07:05.186Z,100101.53
2022-11-17T02:09:37.428Z,100148.97
2022-11-17T02:12:06.274Z,100127.81
2022-11-17T02:14:33.115Z,100142.44
2022-11-17T02:17:06.286Z,100112.41
2022-11-17T02:19:42.729Z,100108.88
2022-11-17T02:22:15.214Z,100128.47
2022-11-17T02:24:47.623Z,100123.63
2022-11-17T02:27:41.697Z,100134.25
2022-11-17T02:30:15.559Z,100095.84
2022-11-17T02:33:00.399Z,100048.69
2022-11-17T02:35:48.882Z,100131.56
2022-11-17T02:38:50.379Z,100121.97
2022-11-17T02:41:24.892Z,100122.06
2022-11-17T02:44:18.105Z,100116.53
2022-11-17T02:46:48.443Z,100048.59
2022-11-17T02:49:21.064Z,100091.94
2022-11-17T02:51:53.823Z,100034.38
2022-11-17T02:54:22.927Z,100108.13
2022-11-17T02:56:49.393Z,100115.63
2022-11-17T02:59:18.739Z,100120.00
2022-11-17T03:02:07.174Z,100116.75
2022-11-17T03:05:05.912Z,100041.75
2022-11-17T03:07:58.817Z,100095.13
2022-11-17T03:10:46.938Z,100095.72
2022-11-17T03:13:43.842Z,100082.97
2022-11-17T03:16:24.666Z,100091.19
2022-11-17T03:19:16.704Z,100047.31
2022-11-17T03:21:56.487Z,100090.06
2022-11-17T03:24:33.712Z,100076.34
2022-11-17T03:27:10.902Z,100078.53
2022-11-17T03:29:41.428Z,100007.25
2022-11-17T03:32:10.125Z,100056.31
2022-11-17T03:34:42.235Z,100038.78
2022-11-17T03:37:12.588Z,100010.44
2022-11-17T03:39:45.946Z,99992.44
2022-11-17T03:42:20.280Z,100065.09
2022-11-17T03:44:53.424Z,99958.94
2022-11-17T03:47:22.981Z,99969.84
2022-11-17T03:50:36.281Z,100061.94
2022-11-17T03:53:04.635Z,100017.22
2022-11-17T03:55:45.247Z,100042.63
2022-11-17T03:58:22.350Z,100017.09
2022-11-17T04:00:53.380Z,100027.91
2022-11-17T04:03:22.734Z,100033.72
2022-11-17T04:05:49.279Z,99965.19
2022-11-17T04:08:15.702Z,99992.34
2022-11-17T04:11:05.016Z,99989.78
2022-11-17T04:13:49.861Z,99937.59
2022-11-17T04:16:16.425Z,100006.88
2022-11-17T04:18:43.034Z,99970.06
2022-11-17T04:21:09.455Z,100004.66
2022-11-17T04:23:36.207Z,100006.81
2022-11-17T04:26:21.348Z,99990.38
2022-11-17T04:28:50.512Z,99970.16
2022-11-17T04:31:25.936Z,99904.50
2022-11-17T04:33:54.511Z,100005.03
2022-11-17T04:36:28.500Z,100007.38
2022-11-17T04:38:57.700Z,99979.50
2022-11-17T04:41:45.334Z,99990.03
2022-11-17T04:44:13.367Z,100004.09
2022-11-17T04:46:41.028Z,99967.66
2022-11-17T04:49:08.640Z,99961.25
2022-11-17T04:51:36.331Z,99988.28
2022-11-17T04:54:04.422Z,99989.66
2022-11-17T04:56:31.323Z,99960.47
2022-11-17T04:58:58.096Z,99983.34
2022-11-17T05:01:25.637Z,99980.13
2022-11-17T05:03:54.396Z,99980.91
2022-11-17T05:06:24.078Z,99880.38
2022-11-17T05:08:51.386Z,99892.44
2022-11-17T05:11:36.779Z,99918.06
2022-11-17T05:14:03.507Z,99947.41
2022-11-17T05:16:48.885Z,99972.16
2022-11-17T05:19:19.339Z,99948.44
2022-11-17T05:21:46.014Z,99893.28
2022-11-17T05:24:14.382Z,99902.28
2022-11-17T05:26:42.604Z,99956.72
2022-11-17T05:29:10.319Z,99914.59
2022-11-17T05:31:37.120Z,99969.09
2022-11-17T05:34:05.215Z,99969.56
2022-11-17T05:36:32.261Z,99963.53
2022-11-17T05:38:59.217Z,99912.75
2022-11-17T05:41:26.457Z,99966.00
2022-11-17T05:43:52.995Z,99973.66
2022-11-17T05:46:20.524Z,99969.97
2022-11-17T05:48:49.958Z,99904.16
2022-11-17T05:51:18.705Z,99882.22
2022-11-17T05:53:45.167Z,99930.16
2022-11-17T05:56:33.647Z,99962.16
2022-11-17T05:59:27.810Z,99957.09
2022-11-17T06:02:03.862Z,99926.63
2022-11-17T06:04:31.064Z,99941.66
2022-11-17T06:06:59.480Z,99902.50
2022-11-17T06:09:28.882Z,99934.31
2022-11-17T06:11:56.807Z,99949.44
2022-11-17T06:14:25.041Z,99916.31
2022-11-17T06:16:54.908Z,99878.53
2022-11-17T06:19:24.886Z,99946.75
2022-11-17T06:22:10.972Z,99941.31
2022-11-17T06:24:39.631Z,99885.47
2022-11-17T06:27:06.387Z,99939.22
2022-11-17T06:29:32.953Z,99882.06
2022-11-17T06:31:59.973Z,99937.09
2022-11-17T06:34:28.346Z,99933.19
2022-11-17T06:36:56.078Z,99940.66
2022-11-17T06:39:22.595Z,99934.53
2022-11-17T06:41:49.063Z,99935.94
2022-11-17T06:44:15.518Z,99915.38
2022-11-17T06:46:47.586Z,99802.63
2022-11-17T06:49:15.309Z,99937.34
2022-11-17T06:51:45.136Z,99943.59
2022-11-17T06:54:14.762Z,99941.94
2022-11-17T06:56:41.663Z,99943.59
2022-11-17T06:59:08.160Z,99939.88
2022-11-17T07:01:34.723Z,99811.63
2022-11-17T07:04:01.221Z,99922.38
2022-11-17T07:06:27.695Z,99940.56
2022-11-17T07:08:54.315Z,99785.19
2022-11-17T07:11:20.794Z,99939.91
2022-11-17T07:13:47.420Z,99890.59
2022-11-17T07:16:22.938Z,99936.44
2022-11-17T07:18:50.478Z,99935.63
2022-11-17T07:21:18.148Z,99851.47
2022-11-17T07:23:45.892Z,99918.75
2022-11-17T07:26:12.674Z,99887.03
2022-11-17T07:28:39.304Z,99881.63
2022-11-17T07:31:08.131Z,99930.16
2022-11-17T07:33:35.369Z,99834.56
2022-11-17T07:36:11.872Z,99911.44
2022-11-17T07:38:40.215Z,99933.28
2022-11-17T07:41:08.915Z,99916.09
2022-11-17T07:43:36.678Z,99862.59
2022-11-17T07:46:04.856Z,99744.94
2022-11-17T07:48:32.722Z,99925.72
2022-11-17T07:51:00.280Z,99932.97
2022-11-17T07:53:26.969Z,99897.63
2022-11-17T07:55:53.573Z,99928.38
2022-11-17T07:58:20.128Z,99929.44
2022-11-17T08:00:46.689Z,99913.41
2022-11-17T08:03:13.256Z,99927.25
2022-11-17T08:05:43.304Z,99920.41
2022-11-17T08:08:10.361Z,99922.72
2022-11-17T08:10:36.992Z,99934.22
2022-11-17T08:13:04.074Z,99909.06
2022-11-17T08:15:31.021Z,99879.53
2022-11-17T08:17:59.724Z,99841.06
2022-11-17T08:20:29.377Z,99931.38
2022-11-17T08:22:56.731Z,99922.00
2022-11-17T08:25:25.301Z,99884.84
2022-11-17T08:27:55.335Z,99914.59
2022-11-17T08:30:22.903Z,99919.81
2022-11-17T08:32:53.684Z,99848.22
2022-11-17T08:35:23.154Z,99923.28
2022-11-17T08:37:49.653Z,99913.38
2022-11-17T08:40:18.141Z,99917.47
2022-11-17T08:42:45.356Z,99875.41
2022-11-17T08:45:12.537Z,99840.13
2022-11-17T08:47:39.525Z,99908.78
2022-11-17T08:50:07.053Z,99910.16
2022-11-17T08:52:33.741Z,99912.69
2022-11-17T08:55:00.386Z,99905.88
2022-11-17T08:57:29.933Z,99895.38
2022-11-17T08:59:56.527Z,99858.28
2022-11-17T09:02:23.123Z,99875.41
2022-11-17T09:04:50.646Z,99863.88
2022-11-17T09:07:17.748Z,99897.84
2022-11-17T09:09:46.214Z,99860.47
2022-11-17T09:12:12.868Z,99863.31
2022-11-17T09:14:39.440Z,99814.78
2022-11-17T09:17:06.005Z,99847.13
2022-11-17T09:19:32.513Z,99895.44
2022-11-17T09:21:59.960Z,99893.47
2022-11-17T09:24:26.839Z,99886.66
2022-11-17T09:26:54.959Z,99879.56
2022-11-17T09:29:22.015Z,99736.25
2022-11-17T09:31:48.690Z,99874.19
2022-11-17T09:34:16.377Z,99850.44
2022-11-17T09:36:42.917Z,99889.13
2022-11-17T09:39:10.100Z,99890.63
2022-11-17T09:41:48.343Z,99853.34
2022-11-17T09:44:39.793Z,99900.66
2022-11-17T09:47:43.176Z,99884.84
2022-11-17T09:50:24.066Z,99886.78
2022-11-17T09:52:59.662Z,99811.34
2022-11-17T09:55:35.572Z,99876.72
2022-11-17T09:58:39.875Z,99880.84
2022-11-17T10:01:11.598Z,99846.72
2022-11-17T10:03:45.426Z,99863.69
2022-11-17T10:06:21.409Z,99883.50
2022-11-17T10:09:17.784Z,99885.22
2022-11-17T10:11:48.021Z,99875.88
2022-11-17T10:14:20.644Z,99872.94
2022-11-17T10:16:56.314Z,99867.88
2022-11-17T10:19:31.429Z,99824.97
2022-11-17T10:22:19.507Z,99851.56
2022-11-17T10:24:55.396Z,99832.09
2022-11-17T10:27:25.082Z,99856.31
2022-11-17T10:30:22.391Z,99830.94
2022-11-17T10:32:51.915Z,99858.66
2022-11-17T10:35:18.389Z,99846.97
2022-11-17T10:38:08.220Z,99844.06
2022-11-17T10:40:40.568Z,99837.63
2022-11-17T10:43:13.113Z,99831.06
2022-11-17T10:45:58.624Z,99819.03
2022-11-17T10:48:29.763Z,99803.50
2022-11-17T10:50:59.675Z,99834.69
2022-11-17T10:53:31.004Z,99814.25
2022-11-17T10:56:01.912Z,99814.28
2022-11-17T10:58:31.260Z,99821.44
2022-11-17T11:01:01.368Z,99775.78
2022-11-17T11:03:31.064Z,99799.59
2022-11-17T11:06:21.291Z,99811.00
2022-11-17T11:09:16.772Z,99794.63
2022-11-17T11:11:48.706Z,99812.72
2022-11-17T11:14:42.065Z,99810.19
2022-11-17T11:17:13.376Z,99771.41
2022-11-17T11:19:48.354Z,99813.44
2022-11-17T11:22:21.999Z,99734.97
2022-11-17T11:25:01.207Z,99808.09
2022-11-17T11:27:46.563Z,99806.38
2022-11-17T11:30:16.710Z,99805.06
2022-11-17T11:33:05.195Z,99800.56
2022-11-17T11:35:40.992Z,99794.38
2022-11-17T11:38:39.888Z,99796.81
2022-11-17T11:41:28.053Z,99798.25
2022-11-17T11:44:13.455Z,99796.28
2022-11-17T11:46:39.915Z,99793.16
2022-11-17T11:49:39.784Z,99790.34
2022-11-17T11:52:16.316Z,99755.84
2022-11-17T11:54:54.999Z,99803.72
2022-11-17T11:57:29.200Z,99743.22
2022-11-17T12:00:04.785Z,99742.63
2022-11-17T12:02:45.865Z,99787.34
2022-11-17T12:05:28.482Z,99800.16
2022-11-17T12:08:25.658Z,99790.94
2022-11-17T12:11:29.665Z,99795.19
2022-11-17T12:13:57.802Z,99780.63
2022-11-17T12:16:29.061Z,99742.84
2022-11-17T12:18:55.517Z,99741.25
2022-11-17T12:21:25.065Z,99779.53
2022-11-17T12:24:03.550Z,99793.28
2022-11-17T12:26:32.714Z,99795.44
2022-11-17T12:29:27.717Z,99788.50
2022-11-17T12:31:56.979Z,99789.22
2022-11-17T12:35:09.873Z,99790.88
2022-11-17T12:37:36.372Z,99699.28
2022-11-17T12:40:08.893Z,99786.22
2022-11-17T12:42:36.332Z,99799.06
2022-11-17T12:45:13.277Z,99797.50
2022-11-17T12:47:59.206Z,99781.59
2022-11-17T12:50:49.045Z,99801.03
2022-11-17T12:53:48.014Z,99809.84
2022-11-17T12:56:46.936Z,99804.72
2022-11-17T12:59:26.861Z,99785.22
2022-11-17T13:02:14.157Z,99806.94
2022-11-17T13:04:49.641Z,99795.44
2022-11-17T13:07:26.511Z,99805.59
2022-11-17T13:09:58.532Z,99801.59
2022-11-17T13:12:27.829Z,99817.50
2022-11-17T13:15:05.300Z,99776.94
2022-11-17T13:17:34.780Z,99805.38
2022-11-17T13:20:24.376Z,99797.78
2022-11-17T13:23:21.620Z,99801.38
2022-11-17T13:25:48.965Z,99807.09
2022-11-17T13:28:30.741Z,99799.66
2022-11-17T13:30:58.920Z,99800.72
2022-11-17T13:33:27.068Z,99800.47
2022-11-17T13:36:17.408Z,99799.81
2022-11-17T13:38:50.074Z,99796.59
2022-11-17T13:41:19.401Z,99806.47
2022-11-17T13:43:47.230Z,99802.47
2022-11-17T13:46:13.767Z,99809.63
2022-11-17T13:48:42.820Z,99808.03
2022-11-17T13:51:33.091Z,99806.19
2022-11-17T13:54:12.068Z,99812.53
2022-11-17T13:56:42.725Z,99808.44
2022-11-17T13:59:18.229Z,99755.06
2022-11-17T14:01:45.101Z,99804.63
2022-11-17T14:04:21.532Z,99824.16
2022-11-17T14:07:02.286Z,99813.88
2022-11-17T14:09:31.420Z,99805.72
2022-11-17T14:11:58.760Z,99764.31
2022-11-17T14:14:41.600Z,99796.09
2022-11-17T14:17:13.836Z,99830.97
2022-11-17T14:19:40.542Z,99770.47
2022-11-17T14:22:11.458Z,99823.31
2022-11-17T14:24:40.936Z,99810.69
2022-11-17T14:27:29.075Z,99835.31
2022-11-17T14:29:55.537Z,99814.91
2022-11-17T14:32:22.050Z,99822.59
2022-11-17T14:34:48.565Z,99732.16
2022-11-17T14:37:15.059Z,99793.13
2022-11-17T14:39:41.737Z,99829.31
2022-11-17T14:42:11.099Z,99787.84
2022-11-17T14:44:37.589Z,99752.97
2022-11-17T14:47:04.153Z,99785.25
2022-11-17T14:49:30.700Z,99838.34
2022-11-17T14:51:59.290Z,99841.84
2022-11-17T14:54:26.263Z,99839.63
2022-11-17T14:56:52.683Z,99817.38
2022-11-17T14:59:19.281Z,99804.63
2022-11-17T15:01:45.981Z,99846.69
2022-11-17T15:04:42.824Z,99848.88
2022-11-17T15:07:00.777Z,99845.44
2022-11-17T15:09:27.424Z,99858.91
2022-11-17T15:11:54.417Z,99855.31
2022-11-17T15:14:20.927Z,99732.00
2022-11-17T15:16:47.375Z,99866.56
2022-11-17T15:19:13.951Z,99797.72
2022-11-17T15:21:40.424Z,99858.06
2022-11-17T15:24:07.028Z,99839.28
2022-11-17T15:26:34.224Z,99869.19
2022-11-17T15:29:01.180Z,99843.59
2022-11-17T15:31:28.056Z,99781.22
2022-11-17T15:33:54.530Z,99810.50
2022-11-17T15:36:22.936Z,99816.13
2022-11-17T15:38:49.977Z,99822.81
2022-11-17T15:41:16.847Z,99787.81
2022-11-17T15:43:44.568Z,99865.38
2022-11-17T15:46:18.688Z,99867.94
2022-11-17T15:48:49.039Z,99858.69
2022-11-17T15:51:17.921Z,99884.16
2022-11-17T15:53:46.859Z,99888.06
2022-11-17T15:56:25.134Z,99877.97
2022-11-17T15:58:57.434Z,99878.50
2022-11-17T16:01:23.989Z,99886.16
2022-11-17T16:03:51.398Z,99883.84
2022-11-17T16:06:18.509Z,99877.97
2022-11-17T16:08:45.251Z,99835.34
2022-11-17T16:11:11.760Z,99885.50
2022-11-17T16:13:38.607Z,99856.94
2022-11-17T16:16:05.551Z,99855.22
2022-11-17T16:18:35.542Z,99828.53
2022-11-17T16:21:04.791Z,99891.84
2022-11-17T16:23:38.158Z,99885.19
2022-11-17T16:26:04.898Z,99841.72
2022-11-17T16:28:31.351Z,99878.38
2022-11-17T16:30:57.826Z,99883.47
2022-11-17T16:33:24.265Z,99890.81
2022-11-17T16:35:51.000Z,99887.88
2022-11-17T16:38:17.862Z,99889.28
2022-11-17T16:40:44.483Z,99879.91
2022-11-17T16:43:14.056Z,99895.13
2022-11-17T16:45:45.790Z,99891.16
2022-11-17T16:48:12.943Z,99896.97
2022-11-17T16:50:41.606Z,99865.53
2022-11-17T16:53:08.653Z,99848.19
2022-11-17T16:55:36.385Z,99897.44
2022-11-17T16:58:04.479Z,99889.31
2022-11-17T17:00:31.715Z,99899.19
2022-11-17T17:02:58.522Z,99870.50
2022-11-17T17:05:25.649Z,99885.72
2022-11-17T17:07:52.245Z,99896.97
2022-11-17T17:10:18.775Z,99861.66
2022-11-17T17:12:45.216Z,99885.47
2022-11-17T17:15:11.719Z,99905.69
2022-11-17T17:17:38.513Z,99823.03
2022-11-17T17:20:05.536Z,99876.16
2022-11-17T17:22:32.071Z,99893.53
2022-11-17T17:24:58.593Z,99912.84
2022-11-17T17:27:25.021Z,99920.31
2022-11-17T17:29:54.705Z,99864.34
2022-11-17T17:32:21.188Z,99916.09
2022-11-17T17:34:47.675Z,99916.19
2022-11-17T17:37:14.126Z,99919.78
2022-11-17T17:39:40.620Z,99907.63
2022-11-17T17:42:07.145Z,99754.63
2022-11-17T17:44:33.638Z,99928.53
2022-11-17T17:47:00.160Z,99926.41
2022-11-17T17:49:26.587Z,99924.53
2022-11-17T17:51:53.095Z,99881.00
2022-11-17T17:54:21.406Z,99924.47
2022-11-17T17:56:48.630Z,99925.50
2022-11-17T17:59:16.156Z,99901.53
2022-11-17T18:01:45.841Z,99858.63
2022-11-17T18:04:15.904Z,99935.19
2022-11-17T18:06:47.149Z,99938.81
2022-11-17T18:09:15.668Z,99947.44
2022-11-17T18:11:46.081Z,99955.09
2022-11-17T18:14:13.560Z,99868.97
2022-11-17T18:16:40.588Z,99934.91
2022-11-17T18:19:08.667Z,99941.53
2022-11-17T18:21:35.748Z,99890.28
2022-11-17T18:24:02.824Z,99960.66
2022-11-17T18:26:32.442Z,99915.94
2022-11-17T18:29:01.184Z,99959.81
2022-11-17T18:31:30.483Z,99958.00
2022-11-17T18:34:00.040Z,99944.72
2022-11-17T18:36:27.585Z,99957.97
2022-11-17T18:38:54.600Z,99947.66
2022-11-17T18:41:21.870Z,99961.44
2022-11-17T18:43:49.116Z,99952.97
2022-11-17T18:46:18.433Z,99948.66
2022-11-17T18:48:47.464Z,99958.66
2022-11-17T18:51:20.599Z,99852.81
2022-11-17T18:53:51.832Z,99940.94
2022-11-17T18:56:21.031Z,99962.94
2022-11-17T18:58:47.724Z,99959.72
2022-11-17T19:01:17.150Z,99968.88
2022-11-17T19:03:45.470Z,99937.06
2022-11-17T19:06:13.577Z,99976.00
2022-11-17T19:08:40.081Z,99974.22
2022-11-17T19:11:08.598Z,99926.13
2022-11-17T19:13:36.868Z,99922.28
2022-11-17T19:16:15.471Z,99976.34
2022-11-17T19:18:43.727Z,99984.13
2022-11-17T19:21:15.667Z,99910.72
2022-11-17T19:23:49.531Z,99990.84
2022-11-17T19:26:20.883Z,99985.59
2022-11-17T19:28:48.061Z,99993.84
2022-11-17T19:31:17.999Z,99990.41
2022-11-17T19:33:46.095Z,99993.19
2022-11-17T19:36:33.765Z,100004.91
2022-11-17T19:39:01.802Z,100011.44
2022-11-17T19:41:36.920Z,100007.16
2022-11-17T19:44:08.435Z,100004.38
2022-11-17T19:46:36.375Z,100007.81
2022-11-17T19:49:03.810Z,100008.84
2022-11-17T19:51:32.869Z,100012.94
2022-11-17T19:54:04.028Z,100017.09
2022-11-17T19:56:30.960Z,100003.53
2022-11-17T19:58:58.012Z,100008.25
2022-11-17T20:01:29.218Z,100003.53
2022-11-17T20:03:57.093Z,100019.53
2022-11-17T20:06:27.387Z,100019.44
2022-11-17T20:08:55.034Z,100021.03
2022-11-17T20:11:26.949Z,99983.84
2022-11-17T20:13:54.646Z,100021.25
2022-11-17T20:16:26.277Z,100027.22
2022-11-17T20:18:56.995Z,100028.50
2022-11-17T20:21:24.974Z,100029.16
2022-11-17T20:23:51.788Z,99974.97
2022-11-17T20:26:21.172Z,99929.78
2022-11-17T20:28:48.120Z,99972.31
2022-11-17T20:31:17.651Z,99984.25
2022-11-17T20:33:44.119Z,100037.25
2022-11-17T20:36:21.557Z,100037.53
2022-11-17T20:39:02.473Z,100043.28
2022-11-17T20:41:29.750Z,100045.22
2022-11-17T20:43:58.652Z,100034.97
2022-11-17T20:46:25.877Z,99986.28
2022-11-17T20:48:52.736Z,100033.13
2022-11-17T20:51:21.098Z,100040.41
2022-11-17T20:53:48.099Z,100010.44
2022-11-17T20:56:19.096Z,100049.69
2022-11-17T20:58:45.969Z,100054.28
2022-11-17T21:01:18.140Z,100052.56
2022-11-17T21:03:45.553Z,100048.41
2022-11-17T21:06:13.219Z,99981.25
2022-11-17T21:08:41.137Z,100053.41
2022-11-17T21:11:10.743Z,99956.66
2022-11-17T21:13:37.993Z,99983.31
2022-11-17T21:16:08.774Z,100055.69
2022-11-17T21:18:36.898Z,100056.63
2022-11-17T21:21:08.625Z,100068.81
2022-11-17T21:23:36.648Z,100054.28
2022-11-17T21:26:14.931Z,100067.75
2022-11-17T21:28:41.645Z,100009.84
2022-11-17T21:31:10.578Z,100068.72
2022-11-17T21:33:37.702Z,100068.94
2022-11-17T21:36:06.433Z,100075.47
2022-11-17T21:38:33.245Z,100075.94
2022-11-17T21:41:04.502Z,100069.75
2022-11-17T21:43:31.582Z,100071.25
2022-11-17T21:46:02.822Z,100080.06
2022-11-17T21:48:29.339Z,100085.81
2022-11-17T21:50:55.846Z,100081.09
2022-11-17T21:53:22.288Z,100088.09
2022-11-17T21:55:48.709Z,100085.63
2022-11-17T21:58:15.333Z,100092.78
2022-11-17T22:00:41.880Z,100093.63
2022-11-17T22:03:08.397Z,100097.19
2022-11-17T22:05:35.087Z,100100.66
2022-11-17T22:08:01.557Z,100105.72
2022-11-17T22:10:28.008Z,100089.72
2022-11-17T22:12:54.509Z,100107.97
2022-11-17T22:15:21.476Z,100102.72
2022-11-17T22:17:48.831Z,100101.91
2022-11-17T22:20:15.641Z,100114.47
2022-11-17T22:22:42.202Z,100067.38
2022-11-17T22:25:37.490Z,100119.41
2022-11-17T22:27:55.688Z,100118.72
2022-11-17T22:30:22.225Z,100119.31
2022-11-17T22:32:48.683Z,100128.31
2022-11-17T22:35:15.177Z,100114.81
2022-11-17T22:37:41.825Z,100120.81
2022-11-17T22:40:08.443Z,100127.41
2022-11-17T22:42:34.928Z,100133.47
2022-11-17T22:45:01.381Z,100098.84
2022-11-17T22:47:27.852Z,100129.53
2022-11-17T22:49:54.303Z,100136.00
2022-11-17T22:52:20.766Z,100124.34
2022-11-17T22:54:47.215Z,100131.75
2022-11-17T22:57:13.672Z,100089.81
2022-11-17T22:59:40.120Z,100073.59
2022-11-17T23:02:06.613Z,100139.66
2022-11-17T23:04:33.049Z,100154.38
2022-11-17T23:06:59.583Z,100148.13
2022-11-17T23:09:26.079Z,100094.72
2022-11-17T23:11:52.615Z,100156.31
2022-11-17T23:14:19.244Z,100152.84
2022-11-17T23:16:45.690Z,100149.91
2022-11-17T23:19:13.612Z,100132.81
2022-11-17T23:21:40.541Z,100166.63
2022-11-17T23:24:09.875Z,100169.63
2022-11-17T23:26:36.455Z,100173.38
2022-11-17T23:29:06.205Z,100169.53
2022-11-17T23:31:32.684Z,100153.91
2022-11-17T23:33:59.155Z,100143.34
2022-11-17T23:36:25.763Z,100142.50
2022-11-17T23:38:54.268Z,100151.56
2022-11-17T23:41:21.626Z,100164.56
2022-11-17T23:43:53.093Z,100159.34
2022-11-17T23:46:22.031Z,100137.03
2022-11-17T23:48:48.972Z,100189.78
2022-11-17T23:51:21.234Z,100149.38
2022-11-17T23:53:49.408Z,100177.78
2022-11-17T23:56:16.731Z,100113.78
2022-11-17T23:58:46.631Z,100164.13
